createdAt,value
2019-04-27T00:01:56.943Z,43.50
2019-04-27T00:04:33.331Z,41.13
2019-04-27T00:07:07.112Z,42.65
2019-04-27T00:09:50.205Z,42.08
2019-04-27T00:12:22.423Z,41.60
2019-04-27T00:14:54.448Z,43.65
2019-04-27T00:17:43.535Z,42.58
2019-04-27T00:20:13.131Z,41.60
2019-04-27T00:22:48.209Z,41.15
2019-04-27T00:25:19.753Z,41.53
2019-04-27T00:27:51.289Z,39.00
2019-04-27T00:30:23.462Z,41.85
2019-04-27T00:32:55.339Z,41.63
2019-04-27T00:35:31.625Z,41.28
2019-04-27T00:38:10.783Z,40.55
2019-04-27T00:40:46.896Z,41.68
2019-04-27T00:43:18.551Z,41.35
2019-04-27T00:45:50.381Z,40.90
2019-04-27T00:48:23.277Z,41.92
2019-04-27T00:50:55.098Z,40.08
2019-04-27T00:53:26.644Z,39.95
2019-04-27T00:56:03.934Z,40.00
2019-04-27T00:58:49.068Z,40.30
2019-04-27T01:01:31.062Z,39.45
2019-04-27T01:04:04.404Z,38.58
2019-04-27T01:06:36.091Z,40.83
2019-04-27T01:09:10.913Z,40.08
2019-04-27T01:11:43.545Z,41.30
2019-04-27T01:14:15.078Z,39.60
2019-04-27T01:16:46.683Z,40.45
2019-04-27T01:19:19.086Z,40.63
2019-04-27T01:21:50.775Z,42.60
2019-04-27T01:24:22.394Z,44.95
2019-04-27T01:27:10.843Z,47.55
2019-04-27T01:29:42.623Z,47.03
2019-04-27T01:32:15.845Z,45.17
2019-04-27T01:34:49.431Z,42.58
2019-04-27T01:37:21.688Z,41.30
2019-04-27T01:39:54.138Z,39.90
2019-04-27T01:42:25.717Z,39.95
2019-04-27T01:44:57.271Z,44.20
2019-04-27T01:47:29.033Z,46.20
2019-04-27T01:50:00.513Z,45.45
2019-04-27T01:52:32.280Z,46.75
2019-04-27T01:55:04.098Z,47.78
2019-04-27T01:57:35.680Z,47.05
2019-04-27T02:00:19.354Z,47.88
2019-04-27T02:02:52.710Z,40.05
2019-04-27T02:05:40.811Z,38.90
2019-04-27T02:08:12.524Z,46.65
2019-04-27T02:10:44.281Z,44.38
2019-04-27T02:13:16.002Z,44.40
2019-04-27T02:15:48.690Z,44.20
2019-04-27T02:18:20.541Z,45.20
2019-04-27T02:20:55.547Z,39.73
2019-04-27T02:23:26.968Z,42.33
2019-04-27T02:25:58.730Z,41.33
2019-04-27T02:28:35.300Z,42.30
2019-04-27T02:31:11.514Z,44.10
2019-04-27T02:33:50.044Z,44.93
2019-04-27T02:36:23.208Z,43.50
2019-04-27T02:38:54.813Z,43.90
2019-04-27T02:41:29.605Z,44.30
2019-04-27T02:44:11.405Z,42.95
2019-04-27T02:46:43.036Z,45.67
2019-04-27T02:49:14.484Z,44.45
2019-04-27T02:51:59.308Z,45.45
2019-04-27T02:54:30.382Z,44.03
2019-04-27T02:57:01.971Z,44.58
2019-04-27T02:59:33.394Z,45.85
2019-04-27T03:02:06.856Z,48.92
2019-04-27T03:04:39.907Z,48.95
2019-04-27T03:07:11.726Z,50.65
2019-04-27T03:09:43.292Z,49.08
2019-04-27T03:12:16.417Z,51.63
2019-04-27T03:14:52.114Z,51.77
2019-04-27T03:17:40.667Z,49.77
2019-04-27T03:20:13.785Z,52.70
2019-04-27T03:22:49.500Z,51.77
2019-04-27T03:25:22.251Z,52.13
2019-04-27T03:28:00.234Z,50.73
2019-04-27T03:30:35.809Z,51.53
2019-04-27T03:33:05.470Z,51.37
2019-04-27T03:35:38.623Z,50.58
2019-04-27T03:38:12.557Z,51.20
2019-04-27T03:40:43.879Z,53.23
2019-04-27T03:43:17.035Z,53.42
2019-04-27T03:45:52.020Z,51.88
2019-04-27T03:48:22.449Z,51.10
2019-04-27T03:51:10.680Z,47.13
2019-04-27T03:53:43.700Z,41.05
2019-04-27T03:56:25.548Z,43.45
2019-04-27T03:59:04.315Z,39.70
2019-04-27T04:01:35.827Z,38.30
2019-04-27T04:04:10.109Z,38.55
2019-04-27T04:06:41.004Z,39.98
2019-04-27T04:09:13.330Z,40.55
2019-04-27T04:11:46.383Z,40.75
2019-04-27T04:14:20.239Z,37.83
2019-04-27T04:17:03.176Z,37.95
2019-04-27T04:19:48.888Z,34.03
2019-04-27T04:22:10.269Z,32.73
2019-04-27T04:24:41.513Z,33.23
2019-04-27T04:27:13.110Z,33.05
2019-04-27T04:29:44.795Z,28.27
2019-04-27T04:32:16.345Z,29.18
2019-04-27T04:34:50.104Z,28.32
2019-04-27T04:37:21.169Z,25.90
2019-04-27T04:39:53.688Z,25.12
2019-04-27T04:42:27.041Z,25.57
2019-04-27T04:45:00.667Z,25.75
2019-04-27T04:47:36.607Z,27.40
2019-04-27T04:50:14.592Z,31.00
2019-04-27T04:52:42.427Z,32.90
2019-04-27T04:55:15.272Z,25.20
2019-04-27T04:57:49.113Z,27.17
2019-04-27T05:00:20.458Z,24.37
2019-04-27T05:02:52.303Z,21.85
2019-04-27T05:05:23.696Z,27.50
2019-04-27T05:07:54.998Z,25.90
2019-04-27T05:10:26.532Z,30.17
2019-04-27T05:12:59.054Z,28.52
2019-04-27T05:15:31.072Z,25.15
2019-04-27T05:18:02.446Z,24.47
2019-04-27T05:20:41.621Z,23.22
2019-04-27T05:23:13.219Z,21.87
2019-04-27T05:25:44.824Z,24.95
2019-04-27T05:28:16.210Z,25.08
2019-04-27T05:30:49.169Z,23.62
2019-04-27T05:33:20.705Z,24.25
2019-04-27T05:35:52.028Z,30.27
2019-04-27T05:38:23.291Z,30.20
2019-04-27T05:40:54.648Z,32.13
2019-04-27T05:43:31.754Z,28.95
2019-04-27T05:46:21.627Z,25.55
2019-04-27T05:48:53.106Z,24.15
2019-04-27T05:51:24.498Z,23.80
2019-04-27T05:53:56.005Z,23.52
2019-04-27T05:56:28.904Z,25.65
2019-04-27T05:59:00.622Z,36.15
2019-04-27T06:01:33.294Z,33.80
2019-04-27T06:04:05.940Z,22.58
2019-04-27T06:06:39.290Z,28.60
2019-04-27T06:09:10.853Z,27.32
2019-04-27T06:11:42.514Z,18.73
2019-04-27T06:14:14.182Z,28.15
2019-04-27T06:16:45.715Z,29.20
2019-04-27T06:19:19.218Z,16.45
2019-04-27T06:21:50.459Z,12.53
2019-04-27T06:24:22.093Z,17.15
2019-04-27T06:26:53.392Z,9.95
2019-04-27T06:29:24.787Z,12.82
2019-04-27T06:31:56.159Z,13.48
2019-04-27T06:34:28.745Z,8.83
2019-04-27T06:37:00.737Z,7.08
2019-04-27T06:39:32.219Z,7.87
2019-04-27T06:42:16.053Z,7.53
2019-04-27T06:44:36.875Z,7.67
2019-04-27T06:47:09.119Z,7.53
2019-04-27T06:49:40.737Z,21.50
2019-04-27T06:52:12.248Z,21.97
2019-04-27T06:54:43.586Z,15.80
2019-04-27T06:57:14.989Z,9.28
2019-04-27T06:59:46.530Z,6.60
2019-04-27T07:02:19.007Z,7.10
2019-04-27T07:04:50.784Z,7.20
2019-04-27T07:07:22.199Z,7.12
2019-04-27T07:09:53.694Z,7.22
2019-04-27T07:12:25.176Z,7.03
2019-04-27T07:14:56.688Z,7.35
2019-04-27T07:17:28.999Z,6.97
2019-04-27T07:20:00.984Z,7.22
2019-04-27T07:22:32.847Z,7.62
2019-04-27T07:25:05.670Z,6.85
2019-04-27T07:27:37.084Z,7.95
2019-04-27T07:30:11.803Z,8.70
2019-04-27T07:32:42.011Z,8.08
2019-04-27T07:35:15.844Z,7.80
2019-04-27T07:37:48.823Z,8.00
2019-04-27T07:40:20.479Z,8.40
2019-04-27T07:42:53.675Z,7.33
2019-04-27T07:45:35.673Z,7.28
2019-04-27T07:48:08.966Z,7.75
2019-04-27T07:50:41.240Z,7.45
2019-04-27T07:53:16.384Z,7.53
2019-04-27T07:55:49.430Z,6.87
2019-04-27T07:58:22.210Z,6.30
2019-04-27T08:00:54.135Z,6.42
2019-04-27T08:03:25.824Z,6.87
2019-04-27T08:05:58.803Z,7.22
2019-04-27T08:08:30.716Z,8.90
2019-04-27T08:11:05.070Z,8.30
2019-04-27T08:13:36.580Z,8.85
2019-04-27T08:16:09.447Z,7.30
2019-04-27T08:18:40.902Z,8.43
2019-04-27T08:21:14.391Z,8.78
2019-04-27T08:23:45.800Z,8.53
2019-04-27T08:26:22.021Z,10.28
2019-04-27T08:29:08.612Z,10.43
2019-04-27T08:31:42.473Z,10.43
2019-04-27T08:34:31.790Z,11.03
2019-04-27T08:37:04.213Z,11.03
2019-04-27T08:39:35.603Z,11.12
2019-04-27T08:42:09.383Z,11.70
2019-04-27T08:44:40.712Z,11.35
2019-04-27T08:47:13.578Z,11.33
2019-04-27T08:49:46.635Z,11.12
2019-04-27T08:52:19.410Z,10.58
2019-04-27T08:54:51.150Z,10.70
2019-04-27T08:57:23.700Z,10.90
2019-04-27T08:59:55.508Z,10.68
2019-04-27T09:02:39.714Z,10.38
2019-04-27T09:05:00.286Z,10.15
2019-04-27T09:07:36.441Z,10.30
2019-04-27T09:10:26.536Z,10.28
2019-04-27T09:13:08.948Z,10.58
2019-04-27T09:15:42.255Z,9.85
2019-04-27T09:18:16.515Z,10.10
2019-04-27T09:20:49.745Z,10.58
2019-04-27T09:23:21.205Z,10.82
2019-04-27T09:25:52.507Z,10.90
2019-04-27T09:28:24.070Z,11.08
2019-04-27T09:30:55.753Z,10.68
2019-04-27T09:33:27.205Z,10.32
2019-04-27T09:35:58.604Z,11.08
2019-04-27T09:38:30.213Z,11.57
2019-04-27T09:41:01.674Z,10.95
2019-04-27T09:43:34.058Z,11.60
2019-04-27T09:46:05.923Z,11.12
2019-04-27T09:48:37.444Z,11.08
2019-04-27T09:51:08.935Z,11.25
2019-04-27T09:53:41.499Z,11.55
2019-04-27T09:56:16.383Z,11.30
2019-04-27T09:58:47.954Z,11.48
2019-04-27T10:01:19.451Z,12.15
2019-04-27T10:03:52.499Z,11.53
2019-04-27T10:06:24.263Z,12.58
2019-04-27T10:08:57.751Z,12.10
2019-04-27T10:11:29.590Z,12.37
2019-04-27T10:14:01.264Z,11.68
2019-04-27T10:16:33.110Z,11.68
2019-04-27T10:19:04.815Z,12.23
2019-04-27T10:21:37.530Z,12.40
2019-04-27T10:24:10.250Z,12.45
2019-04-27T10:26:43.814Z,11.93
2019-04-27T10:29:16.191Z,12.15
2019-04-27T10:31:48.285Z,12.20
2019-04-27T10:34:20.968Z,11.75
2019-04-27T10:36:52.586Z,12.07
2019-04-27T10:39:27.422Z,11.88
2019-04-27T10:41:58.256Z,12.10
2019-04-27T10:44:29.948Z,11.95
2019-04-27T10:47:01.565Z,10.90
2019-04-27T10:49:33.370Z,11.57
2019-04-27T10:52:05.912Z,12.73
2019-04-27T10:54:37.595Z,12.90
2019-04-27T10:57:09.011Z,12.53
2019-04-27T10:59:40.550Z,12.58
2019-04-27T11:02:12.003Z,12.50
2019-04-27T11:04:47.631Z,12.58
2019-04-27T11:07:23.481Z,12.23
2019-04-27T11:09:54.913Z,13.10
2019-04-27T11:12:26.359Z,12.35
2019-04-27T11:14:57.885Z,12.93
2019-04-27T11:17:29.420Z,13.03
2019-04-27T11:20:02.781Z,13.08
2019-04-27T11:22:36.187Z,12.98
2019-04-27T11:25:08.796Z,14.00
2019-04-27T11:27:40.253Z,13.83
2019-04-27T11:30:13.489Z,15.38
2019-04-27T11:32:45.103Z,14.47
2019-04-27T11:35:21.248Z,15.23
2019-04-27T11:37:55.678Z,39.73
2019-04-27T11:40:28.944Z,15.23
2019-04-27T11:43:00.463Z,14.93
2019-04-27T11:45:33.001Z,15.08
2019-04-27T11:48:05.801Z,14.58
2019-04-27T11:50:37.453Z,15.25
2019-04-27T11:53:19.822Z,13.58
2019-04-27T11:55:43.128Z,14.93
2019-04-27T11:58:16.389Z,13.80
2019-04-27T12:00:49.622Z,12.50
2019-04-27T12:03:21.381Z,12.47
2019-04-27T12:05:52.823Z,13.13
2019-04-27T12:08:24.361Z,12.63
2019-04-27T12:10:55.850Z,12.10
2019-04-27T12:13:28.004Z,11.88
2019-04-27T12:15:59.450Z,11.45
2019-04-27T12:18:31.014Z,11.05
2019-04-27T12:21:02.548Z,10.60
2019-04-27T12:23:37.062Z,11.63
2019-04-27T12:26:08.558Z,11.63
2019-04-27T12:28:41.878Z,11.25
2019-04-27T12:31:19.360Z,11.38
2019-04-27T12:33:50.939Z,11.70
2019-04-27T12:36:22.429Z,12.18
2019-04-27T12:38:56.613Z,10.88
2019-04-27T12:41:29.303Z,11.68
2019-04-27T12:44:00.768Z,11.75
2019-04-27T12:46:32.169Z,12.20
2019-04-27T12:49:03.700Z,10.93
2019-04-27T12:51:35.589Z,12.23
2019-04-27T12:54:10.077Z,11.45
2019-04-27T12:56:45.920Z,10.98
2019-04-27T12:59:19.079Z,11.33
2019-04-27T13:01:50.594Z,11.10
2019-04-27T13:04:22.222Z,11.40
2019-04-27T13:06:55.845Z,11.18
2019-04-27T13:09:27.338Z,11.30
2019-04-27T13:12:00.462Z,10.43
2019-04-27T13:14:31.972Z,11.10
2019-04-27T13:17:06.275Z,12.07
2019-04-27T13:19:37.879Z,11.35
2019-04-27T13:22:09.662Z,10.82
2019-04-27T13:24:41.021Z,11.33
2019-04-27T13:27:12.500Z,11.03
2019-04-27T13:29:43.972Z,11.33
2019-04-27T13:32:16.428Z,11.40
2019-04-27T13:34:47.888Z,11.55
2019-04-27T13:37:34.103Z,11.12
2019-04-27T13:40:09.562Z,11.10
2019-04-27T13:42:44.039Z,11.10
2019-04-27T13:45:32.229Z,10.98
2019-04-27T13:48:11.250Z,10.53
2019-04-27T13:50:50.654Z,11.08
2019-04-27T13:53:22.210Z,10.32
2019-04-27T13:55:53.770Z,11.33
2019-04-27T13:58:25.523Z,10.82
2019-04-27T14:00:56.956Z,10.80
2019-04-27T14:03:28.520Z,10.38
2019-04-27T14:06:01.103Z,10.72
2019-04-27T14:08:32.856Z,10.95
2019-04-27T14:11:04.547Z,10.82
2019-04-27T14:13:36.091Z,10.28
2019-04-27T14:16:08.661Z,10.72
2019-04-27T14:18:40.336Z,10.68
2019-04-27T14:21:11.899Z,10.40
2019-04-27T14:23:43.510Z,10.60
2019-04-27T14:26:14.895Z,9.88
2019-04-27T14:28:48.074Z,10.53
2019-04-27T14:31:20.842Z,9.95
2019-04-27T14:33:53.397Z,10.00
2019-04-27T14:36:24.778Z,10.95
2019-04-27T14:38:56.325Z,11.00
2019-04-27T14:41:28.210Z,10.53
2019-04-27T14:44:08.142Z,10.35
2019-04-27T14:46:33.171Z,11.03
2019-04-27T14:49:04.604Z,10.85
2019-04-27T14:51:36.099Z,11.28
2019-04-27T14:54:09.292Z,10.23
2019-04-27T14:56:48.765Z,11.00
2019-04-27T14:59:21.571Z,10.72
2019-04-27T15:01:54.147Z,11.00
2019-04-27T15:04:27.116Z,10.75
2019-04-27T15:06:59.143Z,11.30
2019-04-27T15:09:30.811Z,11.55
2019-04-27T15:12:02.318Z,10.48
2019-04-27T15:14:33.921Z,10.63
2019-04-27T15:17:06.830Z,10.82
2019-04-27T15:19:40.329Z,11.43
2019-04-27T15:22:19.741Z,11.38
2019-04-27T15:24:48.960Z,11.38
2019-04-27T15:27:21.304Z,10.65
2019-04-27T15:29:55.795Z,11.35
2019-04-27T15:32:33.541Z,11.90
2019-04-27T15:35:09.793Z,11.05
2019-04-27T15:37:43.261Z,11.97
2019-04-27T15:40:31.910Z,13.43
2019-04-27T15:43:04.928Z,12.00
2019-04-27T15:45:38.927Z,11.33
2019-04-27T15:48:10.437Z,11.50
2019-04-27T15:50:43.622Z,12.10
2019-04-27T15:53:15.083Z,11.33
2019-04-27T15:55:46.397Z,11.95
2019-04-27T15:58:24.991Z,11.33
2019-04-27T16:01:02.397Z,11.50
2019-04-27T16:03:32.940Z,12.18
2019-04-27T16:06:08.133Z,12.23
2019-04-27T16:08:45.123Z,12.50
2019-04-27T16:11:16.401Z,13.03
2019-04-27T16:13:46.269Z,14.35
2019-04-27T16:16:19.402Z,13.85
2019-04-27T16:18:53.520Z,13.70
2019-04-27T16:21:25.196Z,14.35
2019-04-27T16:23:58.183Z,15.08
2019-04-27T16:26:29.706Z,14.43
2019-04-27T16:29:01.130Z,14.13
2019-04-27T16:31:34.729Z,14.68
2019-04-27T16:34:05.941Z,15.48
2019-04-27T16:36:43.433Z,15.00
2019-04-27T16:39:10.819Z,14.87
2019-04-27T16:41:43.886Z,15.40
2019-04-27T16:44:15.559Z,15.10
2019-04-27T16:46:48.590Z,14.55
2019-04-27T16:49:20.893Z,16.10
2019-04-27T16:51:53.374Z,14.90
2019-04-27T16:54:24.794Z,15.18
2019-04-27T16:57:03.232Z,16.02
2019-04-27T16:59:43.287Z,15.95
2019-04-27T17:02:02.942Z,16.15
2019-04-27T17:04:34.514Z,15.72
2019-04-27T17:07:05.984Z,17.23
2019-04-27T17:09:44.638Z,17.30
2019-04-27T17:12:10.628Z,16.87
2019-04-27T17:14:49.477Z,16.23
2019-04-27T17:17:42.709Z,16.20
2019-04-27T17:20:19.641Z,16.17
2019-04-27T17:22:50.253Z,16.52
2019-04-27T17:25:23.287Z,16.12
2019-04-27T17:27:57.750Z,16.35
2019-04-27T17:30:32.473Z,15.83
2019-04-27T17:33:14.559Z,16.73
2019-04-27T17:35:43.817Z,16.55
2019-04-27T17:38:16.477Z,16.70
2019-04-27T17:40:51.790Z,16.97
2019-04-27T17:43:22.884Z,18.05
2019-04-27T17:45:54.357Z,18.05
2019-04-27T17:48:25.997Z,16.95
2019-04-27T17:51:02.566Z,16.57
2019-04-27T17:53:33.096Z,17.35
2019-04-27T17:56:05.938Z,18.12
2019-04-27T17:58:39.695Z,17.85
2019-04-27T18:01:18.143Z,17.50
2019-04-27T18:03:44.433Z,16.77
2019-04-27T18:06:15.871Z,16.60
2019-04-27T18:08:48.584Z,16.23
2019-04-27T18:11:21.595Z,15.68
2019-04-27T18:13:55.819Z,15.10
2019-04-27T18:16:30.451Z,14.90
2019-04-27T18:19:07.821Z,14.87
2019-04-27T18:21:38.642Z,15.08
2019-04-27T18:24:15.298Z,15.13
2019-04-27T18:26:56.469Z,15.32
2019-04-27T18:29:29.366Z,17.15
2019-04-27T18:31:58.274Z,16.30
2019-04-27T18:34:29.833Z,15.80
2019-04-27T18:37:04.322Z,15.83
2019-04-27T18:39:38.491Z,17.37
2019-04-27T18:42:10.721Z,15.60
2019-04-27T18:44:42.274Z,16.90
2019-04-27T18:47:13.671Z,16.20
2019-04-27T18:50:07.363Z,15.68
2019-04-27T18:52:50.037Z,16.67
2019-04-27T18:55:21.061Z,17.07
2019-04-27T18:57:54.472Z,17.05
2019-04-27T19:00:25.853Z,18.98
2019-04-27T19:02:58.449Z,19.07
2019-04-27T19:05:39.962Z,19.25
2019-04-27T19:08:03.499Z,18.73
2019-04-27T19:10:35.982Z,18.62
2019-04-27T19:13:08.820Z,18.10
2019-04-27T19:15:40.317Z,18.62
2019-04-27T19:18:11.986Z,18.23
2019-04-27T19:20:43.495Z,18.00
2019-04-27T19:23:15.205Z,17.48
2019-04-27T19:26:06.482Z,17.45
2019-04-27T19:28:39.640Z,17.10
2019-04-27T19:31:15.587Z,16.87
2019-04-27T19:33:48.137Z,16.62
2019-04-27T19:36:19.642Z,17.42
2019-04-27T19:38:51.244Z,17.75
2019-04-27T19:41:22.902Z,17.05
2019-04-27T19:43:54.445Z,16.15
2019-04-27T19:46:26.041Z,15.88
2019-04-27T19:48:59.051Z,15.53
2019-04-27T19:51:32.845Z,15.40
2019-04-27T19:54:04.368Z,15.45
2019-04-27T19:56:38.384Z,15.72
2019-04-27T19:59:14.432Z,15.00
2019-04-27T20:01:48.097Z,15.10
2019-04-27T20:04:27.292Z,15.53
2019-04-27T20:09:45.912Z,15.03
2019-04-27T20:12:17.391Z,15.15
2019-04-27T20:14:57.899Z,15.63
2019-04-27T20:17:31.427Z,14.03
2019-04-27T20:20:03.762Z,14.70
2019-04-27T20:22:35.588Z,14.50
2019-04-27T20:25:07.510Z,16.23
2019-04-27T20:27:46.729Z,14.43
2019-04-27T20:30:13.466Z,14.05
2019-04-27T20:32:47.594Z,15.28
2019-04-27T20:35:18.977Z,13.95
2019-04-27T20:37:51.880Z,16.15
2019-04-27T20:40:23.592Z,14.23
2019-04-27T20:42:55.242Z,14.33
2019-04-27T20:45:26.727Z,13.85
2019-04-27T20:48:01.035Z,14.20
2019-04-27T20:50:32.926Z,14.45
2019-04-27T20:53:10.650Z,14.78
2019-04-27T20:58:31.527Z,12.75
2019-04-27T21:01:03.283Z,14.20
2019-04-27T21:03:36.402Z,13.50
2019-04-27T21:06:24.600Z,14.50
2019-04-27T21:08:56.180Z,13.22
2019-04-27T21:11:30.859Z,13.03
2019-04-27T21:14:02.389Z,13.05
2019-04-27T21:16:33.817Z,12.60
2019-04-27T21:19:05.222Z,13.25
2019-04-27T21:21:37.987Z,13.20
2019-04-27T21:24:09.518Z,13.10
2019-04-27T21:26:41.976Z,12.58
2019-04-27T21:29:13.643Z,22.22
2019-04-27T21:31:45.120Z,14.78
2019-04-27T21:34:16.743Z,13.53
2019-04-27T21:36:48.291Z,13.68
2019-04-27T21:39:21.702Z,18.62
2019-04-27T21:41:53.264Z,14.90
2019-04-27T21:44:24.784Z,15.18
2019-04-27T21:46:56.331Z,13.75
2019-04-27T21:49:28.839Z,14.47
2019-04-27T21:52:03.888Z,14.90
2019-04-27T21:54:37.038Z,15.75
2019-04-27T21:57:08.487Z,14.25
2019-04-27T21:59:39.944Z,14.33
2019-04-27T22:02:12.411Z,14.43
2019-04-27T22:04:43.964Z,14.20
2019-04-27T22:07:15.527Z,14.23
2019-04-27T22:09:47.186Z,14.87
2019-04-27T22:12:21.319Z,14.50
2019-04-27T22:14:53.192Z,14.15
2019-04-27T22:17:24.662Z,14.28
2019-04-27T22:19:57.046Z,14.50
2019-04-27T22:22:31.422Z,14.73
2019-04-27T22:25:07.935Z,14.13
2019-04-27T22:27:41.174Z,14.18
2019-04-27T22:30:12.962Z,14.53
2019-04-27T22:32:44.495Z,14.05
2019-04-27T22:35:15.855Z,14.68
2019-04-27T22:37:47.352Z,13.53
2019-04-27T22:40:36.570Z,14.07
2019-04-27T22:43:09.736Z,13.62
2019-04-27T22:45:42.933Z,13.48
2019-04-27T22:48:14.349Z,14.47
2019-04-27T22:50:45.923Z,13.60
2019-04-27T22:53:17.609Z,14.65
2019-04-27T22:56:07.161Z,13.20
2019-04-27T22:58:40.694Z,14.28
2019-04-27T23:01:30.873Z,13.95
2019-04-27T23:04:04.165Z,14.10
2019-04-27T23:06:35.664Z,14.45
2019-04-27T23:09:07.414Z,13.90
2019-04-27T23:11:41.522Z,13.68
2019-04-27T23:14:13.080Z,13.93
2019-04-27T23:16:49.277Z,13.80
2019-04-27T23:19:21.057Z,12.47
2019-04-27T23:21:53.201Z,12.07
2019-04-27T23:24:24.813Z,11.68
2019-04-27T23:26:56.506Z,11.25
2019-04-27T23:29:28.099Z,12.35
2019-04-27T23:32:07.333Z,12.70
2019-04-27T23:34:38.878Z,12.50
2019-04-27T23:37:10.336Z,13.10
2019-04-27T23:39:41.751Z,12.73
2019-04-27T23:42:13.211Z,12.63
2019-04-27T23:44:44.730Z,12.93
2019-04-27T23:47:16.325Z,12.18
2019-04-27T23:49:47.848Z,11.30
2019-04-27T23:52:21.195Z,12.10
2019-04-27T23:54:52.685Z,11.78
2019-04-27T23:57:24.177Z,11.43
2019-04-27T23:59:55.720Z,10.82
